Terminal Aerodrome Forecast
Issued by NWS Charleston, WV

Current Version | Previous Version | Graphics & Text | Print | Product List | Glossary On
Versions: 1 2 3 4 5 6 7 8 9 10 11 12 13 14 15 16 17 18 19 20 21 22 23
000
FTUS41 KRLX 020900 AAA
TAFEKN
TAF AMD
KEKN 020921Z 0209/0306 29009KT 3SM -SN BR OVC015
      TEMPO 0210/0212 6SM -SN OVC020
     FM021200 29008KT P6SM OVC020
     FM021600 28008G16KT P6SM SCT025
     FM022100 30007KT P6SM BKN045=

USA.gov is the U.S. government's official web portal to all federal, state and local government web resources and services.